createdAt,value
2022-10-06T00:00:17.123Z,96.54
2022-10-06T00:02:27.667Z,96.53
2022-10-06T00:04:35.730Z,95.48
2022-10-06T00:06:43.715Z,95.11
2022-10-06T00:08:51.508Z,95.01
2022-10-06T00:10:59.597Z,95.47
2022-10-06T00:13:07.615Z,94.82
2022-10-06T00:15:18.178Z,94.77
2022-10-06T00:17:28.508Z,95.05
2022-10-06T00:19:36.890Z,95.77
2022-10-06T00:21:44.834Z,96.12
2022-10-06T00:23:52.885Z,96.22
2022-10-06T00:26:00.912Z,96.00
2022-10-06T00:28:09.038Z,96.30
2022-10-06T00:30:19.558Z,96.66
2022-10-06T00:32:29.957Z,96.13
2022-10-06T00:34:38.676Z,96.21
2022-10-06T00:36:47.008Z,96.15
2022-10-06T00:38:54.989Z,96.00
2022-10-06T00:41:03.019Z,95.53
2022-10-06T00:43:40.843Z,95.69
2022-10-06T00:45:52.377Z,96.31
2022-10-06T00:48:08.257Z,97.22
2022-10-06T00:50:17.695Z,97.83
2022-10-06T00:52:29.710Z,98.01
2022-10-06T00:54:39.093Z,98.08
2022-10-06T00:56:47.427Z,98.65
2022-10-06T00:58:56.448Z,99.07
2022-10-06T01:01:06.873Z,99.80
2022-10-06T01:03:23.174Z,99.41
2022-10-06T01:05:33.989Z,99.02
2022-10-06T01:07:42.405Z,99.37
2022-10-06T01:09:50.320Z,99.02
2022-10-06T01:12:03.265Z,98.27
2022-10-06T01:14:11.635Z,98.61
2022-10-06T01:16:23.305Z,98.69
2022-10-06T01:18:37.739Z,99.14
2022-10-06T01:20:52.060Z,99.68
2022-10-06T01:23:05.431Z,100.00
2022-10-06T01:25:15.158Z,100.00
2022-10-06T01:27:26.712Z,100.00
2022-10-06T01:29:35.764Z,100.00
2022-10-06T01:31:43.956Z,100.00
2022-10-06T01:33:54.662Z,100.00
2022-10-06T01:36:03.187Z,100.00
2022-10-06T01:38:13.786Z,100.00
2022-10-06T01:40:21.971Z,100.00
2022-10-06T01:42:31.920Z,100.00
2022-10-06T01:44:40.776Z,100.00
2022-10-06T01:46:48.768Z,100.00
2022-10-06T01:48:57.854Z,98.95
2022-10-06T01:51:08.774Z,98.21
2022-10-06T01:53:20.903Z,98.07
2022-10-06T01:55:29.521Z,97.35
2022-10-06T01:57:42.805Z,96.13
2022-10-06T01:59:54.704Z,95.43
2022-10-06T02:02:04.941Z,95.24
2022-10-06T02:04:13.405Z,94.72
2022-10-06T02:06:21.682Z,94.82
2022-10-06T02:08:32.574Z,94.46
2022-10-06T02:10:43.034Z,94.12
2022-10-06T02:12:58.441Z,95.29
2022-10-06T02:15:11.122Z,95.70
2022-10-06T02:17:18.976Z,96.81
2022-10-06T02:19:26.812Z,96.66
2022-10-06T02:21:35.398Z,96.47
2022-10-06T02:23:46.446Z,97.00
2022-10-06T02:26:01.934Z,96.83
2022-10-06T02:28:10.484Z,96.80
2022-10-06T02:30:18.796Z,96.67
2022-10-06T02:32:27.871Z,96.53
2022-10-06T02:34:35.883Z,96.46
2022-10-06T02:36:44.020Z,96.14
2022-10-06T02:38:54.660Z,96.82
2022-10-06T02:41:03.628Z,97.46
2022-10-06T02:43:11.816Z,96.98
2022-10-06T02:45:19.786Z,96.88
2022-10-06T02:47:27.692Z,98.02
2022-10-06T02:49:35.407Z,98.35
2022-10-06T02:51:43.440Z,98.16
2022-10-06T02:53:54.868Z,98.28
2022-10-06T02:56:03.455Z,99.54
2022-10-06T02:58:11.380Z,99.01
2022-10-06T03:00:20.048Z,99.19
2022-10-06T03:02:29.171Z,99.50
2022-10-06T03:04:37.145Z,99.62
2022-10-06T03:06:45.893Z,99.33
2022-10-06T03:09:02.460Z,98.94
2022-10-06T03:11:14.902Z,99.28
2022-10-06T03:13:23.269Z,99.31
2022-10-06T03:15:31.441Z,98.69
2022-10-06T03:17:39.484Z,98.60
2022-10-06T03:19:47.313Z,98.64
2022-10-06T03:21:56.197Z,98.91
2022-10-06T03:24:15.496Z,98.48
2022-10-06T03:26:29.404Z,97.06
2022-10-06T03:28:37.895Z,96.84
2022-10-06T03:30:46.152Z,98.31
2022-10-06T03:32:55.764Z,98.45
2022-10-06T03:35:03.780Z,99.03
2022-10-06T03:37:11.871Z,99.62
2022-10-06T03:39:22.946Z,99.16
2022-10-06T03:41:33.195Z,100.00
2022-10-06T03:43:42.866Z,100.00
2022-10-06T03:45:58.736Z,100.00
2022-10-06T03:48:07.307Z,100.00
2022-10-06T03:50:15.650Z,100.00
2022-10-06T03:52:26.050Z,100.00
2022-10-06T03:54:37.281Z,100.00
2022-10-06T03:56:45.795Z,100.00
2022-10-06T03:58:56.144Z,100.00
2022-10-06T04:01:06.924Z,99.69
2022-10-06T04:03:15.286Z,99.21
2022-10-06T04:05:25.740Z,98.60
2022-10-06T04:07:34.109Z,97.75
2022-10-06T04:09:44.984Z,97.98
2022-10-06T04:11:53.982Z,97.89
2022-10-06T04:14:03.790Z,97.69
2022-10-06T04:16:14.668Z,96.92
2022-10-06T04:18:22.823Z,97.51
2022-10-06T04:20:32.772Z,96.87
2022-10-06T04:22:42.438Z,95.65
2022-10-06T04:24:53.093Z,96.92
2022-10-06T04:27:22.009Z,95.71
2022-10-06T04:29:37.786Z,95.80
2022-10-06T04:31:46.253Z,95.98
2022-10-06T04:34:02.066Z,95.37
2022-10-06T04:36:11.363Z,95.78
2022-10-06T04:38:19.624Z,95.98
2022-10-06T04:40:30.748Z,97.25
2022-10-06T04:42:38.517Z,97.75
2022-10-06T04:44:50.258Z,96.97
2022-10-06T04:46:58.160Z,96.59
2022-10-06T04:49:07.093Z,95.91
2022-10-06T04:51:18.279Z,95.54
2022-10-06T04:53:27.228Z,95.81
2022-10-06T04:55:38.186Z,96.13
2022-10-06T04:57:46.423Z,96.69
2022-10-06T05:00:10.065Z,96.87
2022-10-06T05:02:23.261Z,97.26
2022-10-06T05:04:34.251Z,96.82
2022-10-06T05:06:44.185Z,96.93
2022-10-06T05:08:54.353Z,97.55
2022-10-06T05:11:07.029Z,97.95
2022-10-06T05:13:18.344Z,96.28
2022-10-06T05:15:28.200Z,96.15
2022-10-06T05:17:36.708Z,96.35
2022-10-06T05:19:44.774Z,97.03
2022-10-06T05:21:54.891Z,98.03
2022-10-06T05:24:06.025Z,98.56
2022-10-06T05:26:19.125Z,96.37
2022-10-06T05:28:28.681Z,95.73
2022-10-06T05:30:37.136Z,96.27
2022-10-06T05:32:50.581Z,98.18
2022-10-06T05:34:58.850Z,98.55
2022-10-06T05:37:06.888Z,99.12
2022-10-06T05:39:15.982Z,99.40
2022-10-06T05:41:34.069Z,99.48
2022-10-06T05:43:46.090Z,99.03
2022-10-06T05:45:58.142Z,97.77
2022-10-06T05:48:07.374Z,98.01
2022-10-06T05:50:15.648Z,98.47
2022-10-06T05:52:23.478Z,99.05
2022-10-06T05:54:31.481Z,99.55
2022-10-06T05:56:41.927Z,99.38
2022-10-06T05:58:51.315Z,99.13
2022-10-06T06:01:09.099Z,98.32
2022-10-06T06:03:17.175Z,97.18
2022-10-06T06:05:25.552Z,97.94
2022-10-06T06:07:33.824Z,98.96
2022-10-06T06:09:41.681Z,99.33
2022-10-06T06:11:54.410Z,99.43
2022-10-06T06:14:10.156Z,98.09
2022-10-06T06:16:16.073Z,97.34
2022-10-06T06:18:24.987Z,96.24
2022-10-06T06:20:32.965Z,96.16
2022-10-06T06:22:41.301Z,96.65
2022-10-06T06:24:49.260Z,97.25
2022-10-06T06:27:00.117Z,97.57
2022-10-06T06:29:08.553Z,96.84
2022-10-06T06:31:26.633Z,98.10
2022-10-06T06:33:36.057Z,100.00
2022-10-06T06:35:44.190Z,100.00
2022-10-06T06:37:53.993Z,99.92
2022-10-06T06:40:02.115Z,99.67
2022-10-06T06:42:15.292Z,99.34
2022-10-06T06:44:30.264Z,100.00
2022-10-06T06:46:49.889Z,100.00
2022-10-06T06:49:04.387Z,97.39
2022-10-06T06:51:15.214Z,96.56
2022-10-06T06:53:23.557Z,95.56
2022-10-06T06:55:32.209Z,95.63
2022-10-06T06:57:46.577Z,95.48
2022-10-06T06:59:56.089Z,96.36
2022-10-06T07:02:04.794Z,94.98
2022-10-06T07:04:18.345Z,93.90
2022-10-06T07:06:28.823Z,93.61
2022-10-06T07:08:39.277Z,92.92
2022-10-06T07:10:48.727Z,91.93
2022-10-06T07:12:59.471Z,92.55
2022-10-06T07:15:20.706Z,91.99
2022-10-06T07:17:45.382Z,93.48
2022-10-06T07:20:05.957Z,94.05
2022-10-06T07:22:30.452Z,93.91
2022-10-06T07:24:52.193Z,95.99
2022-10-06T07:27:00.173Z,95.60
2022-10-06T07:29:11.519Z,95.77
2022-10-06T07:31:20.301Z,94.89
2022-10-06T07:33:32.778Z,92.94
2022-10-06T07:35:44.283Z,91.59
2022-10-06T07:37:54.667Z,91.47
2022-10-06T07:40:05.525Z,88.44
2022-10-06T07:42:15.509Z,88.90
2022-10-06T07:44:26.667Z,92.28
2022-10-06T07:46:35.926Z,92.78
2022-10-06T07:48:50.713Z,92.49
2022-10-06T07:50:58.686Z,92.25
2022-10-06T07:53:16.363Z,92.37
2022-10-06T07:55:28.438Z,91.55
2022-10-06T07:57:51.327Z,88.16
2022-10-06T08:00:03.286Z,88.95
2022-10-06T08:02:20.440Z,88.26
2022-10-06T08:04:28.766Z,85.31
2022-10-06T08:06:36.684Z,82.65
2022-10-06T08:08:52.429Z,83.44
2022-10-06T08:11:02.921Z,81.86
2022-10-06T08:13:12.254Z,82.60
2022-10-06T08:15:22.935Z,81.89
2022-10-06T08:17:30.781Z,81.98
2022-10-06T08:19:38.562Z,81.95
2022-10-06T08:21:46.662Z,82.20
2022-10-06T08:23:56.082Z,81.29
2022-10-06T08:26:04.407Z,80.64
2022-10-06T08:28:13.420Z,80.46
2022-10-06T08:30:27.386Z,80.25
2022-10-06T08:32:37.610Z,79.75
2022-10-06T08:34:45.939Z,79.16
2022-10-06T08:37:18.805Z,77.99
2022-10-06T08:39:22.493Z,76.72
2022-10-06T08:41:46.780Z,75.79
2022-10-06T08:44:04.706Z,74.81
2022-10-06T08:46:18.757Z,73.00
2022-10-06T08:48:30.112Z,71.74
2022-10-06T08:50:43.189Z,71.83
2022-10-06T08:53:04.157Z,70.92
2022-10-06T08:55:23.531Z,70.71
2022-10-06T08:57:40.343Z,72.83
2022-10-06T08:59:53.757Z,73.49
2022-10-06T09:02:08.332Z,71.68
2022-10-06T09:04:26.350Z,70.91
2022-10-06T09:06:49.446Z,70.91
2022-10-06T09:09:02.764Z,70.78
2022-10-06T09:11:29.595Z,70.86
2022-10-06T09:13:44.932Z,68.70
2022-10-06T09:15:58.409Z,68.76
2022-10-06T09:18:13.498Z,68.22
2022-10-06T09:20:28.288Z,66.79
2022-10-06T09:22:37.017Z,66.38
2022-10-06T09:24:49.626Z,66.00
2022-10-06T09:27:01.484Z,66.31
2022-10-06T09:29:09.807Z,66.57
2022-10-06T09:31:24.231Z,66.17
2022-10-06T09:33:41.537Z,63.78
2022-10-06T09:36:06.390Z,63.34
2022-10-06T09:38:15.248Z,64.09
2022-10-06T09:40:38.669Z,62.98
2022-10-06T09:42:48.003Z,62.58
2022-10-06T09:45:00.796Z,62.67
2022-10-06T09:47:26.929Z,59.87
2022-10-06T09:49:38.042Z,57.37
2022-10-06T09:52:02.212Z,57.07
2022-10-06T09:54:17.185Z,54.53
2022-10-06T09:56:28.500Z,56.46
2022-10-06T09:58:39.340Z,56.29
2022-10-06T10:00:52.556Z,54.75
2022-10-06T10:03:02.974Z,55.02
2022-10-06T10:05:23.715Z,56.82
2022-10-06T10:07:33.871Z,55.84
2022-10-06T10:09:43.107Z,54.62
2022-10-06T10:12:16.531Z,53.59
2022-10-06T10:14:24.835Z,53.08
2022-10-06T10:16:36.353Z,51.31
2022-10-06T10:18:51.219Z,49.31
2022-10-06T10:21:05.295Z,49.61
2022-10-06T10:23:31.093Z,50.03
2022-10-06T10:26:01.935Z,49.95
2022-10-06T10:28:26.051Z,49.42
2022-10-06T10:30:36.860Z,50.48
2022-10-06T10:33:01.023Z,49.98
2022-10-06T10:35:19.093Z,48.91
2022-10-06T10:37:38.318Z,48.75
2022-10-06T10:39:54.930Z,50.03
2022-10-06T10:42:07.632Z,49.05
2022-10-06T10:44:28.534Z,51.27
2022-10-06T10:46:41.690Z,52.94
2022-10-06T10:48:58.656Z,54.22
2022-10-06T10:51:10.519Z,55.36
2022-10-06T10:53:27.192Z,56.60
2022-10-06T10:55:42.718Z,57.97
2022-10-06T10:57:53.670Z,55.28
2022-10-06T11:00:05.102Z,57.13
2022-10-06T11:02:19.250Z,58.27
2022-10-06T11:04:28.132Z,60.48
2022-10-06T11:06:54.636Z,61.73
2022-10-06T11:09:10.627Z,61.55
2022-10-06T11:11:25.264Z,59.46
2022-10-06T11:13:41.559Z,59.61
2022-10-06T11:16:24.809Z,59.28
2022-10-06T11:18:47.107Z,60.38
2022-10-06T11:21:01.625Z,62.22
2022-10-06T11:23:28.979Z,60.85
2022-10-06T11:25:46.103Z,63.43
2022-10-06T11:28:02.867Z,64.34
2022-10-06T11:30:19.792Z,63.61
2022-10-06T11:32:36.408Z,63.02
2022-10-06T11:34:45.624Z,60.18
2022-10-06T11:37:01.734Z,62.38
2022-10-06T11:39:19.830Z,62.90
2022-10-06T11:41:34.563Z,61.10
2022-10-06T11:43:53.607Z,59.85
2022-10-06T11:46:07.938Z,60.32
2022-10-06T11:48:28.088Z,62.37
2022-10-06T11:50:37.934Z,59.98
2022-10-06T11:52:49.606Z,59.38
2022-10-06T11:55:09.660Z,62.36
2022-10-06T11:58:01.012Z,63.32
2022-10-06T12:00:46.029Z,63.59
2022-10-06T12:02:54.364Z,62.86
2022-10-06T12:05:56.292Z,62.11
2022-10-06T12:08:17.578Z,60.58
2022-10-06T12:10:50.676Z,62.79
2022-10-06T12:13:39.977Z,64.32
2022-10-06T12:18:53.392Z,63.82
2022-10-06T12:21:11.876Z,62.40
2022-10-06T12:23:29.821Z,62.14
2022-10-06T12:25:45.389Z,62.28
2022-10-06T12:28:11.246Z,63.58
2022-10-06T12:30:25.083Z,62.49
2022-10-06T12:32:52.014Z,61.84
2022-10-06T12:35:06.248Z,60.88
2022-10-06T12:37:39.740Z,60.57
2022-10-06T12:39:48.002Z,58.78
2022-10-06T12:42:28.471Z,58.07
2022-10-06T12:44:42.405Z,60.44
2022-10-06T12:46:51.526Z,60.52
2022-10-06T12:49:14.279Z,58.32
2022-10-06T12:53:48.760Z,58.71
2022-10-06T12:56:00.851Z,59.75
2022-10-06T12:58:09.698Z,59.23
2022-10-06T13:00:36.146Z,59.61
2022-10-06T13:02:47.779Z,60.42
2022-10-06T13:04:58.492Z,56.17
2022-10-06T13:07:14.472Z,57.54
2022-10-06T13:09:24.846Z,60.42
2022-10-06T13:11:33.252Z,60.24
2022-10-06T13:13:48.941Z,59.36
2022-10-06T13:16:00.860Z,59.23
2022-10-06T13:18:17.288Z,60.20
2022-10-06T13:20:39.897Z,60.70
2022-10-06T13:22:48.143Z,59.19
2022-10-06T13:25:04.474Z,59.87
2022-10-06T13:27:20.570Z,57.89
2022-10-06T13:29:29.231Z,60.25
2022-10-06T13:31:40.091Z,59.81
2022-10-06T13:33:50.449Z,60.01
2022-10-06T13:36:00.795Z,58.88
2022-10-06T13:38:08.958Z,57.94
2022-10-06T13:40:47.285Z,60.70
2022-10-06T13:42:56.142Z,61.68
2022-10-06T13:45:07.074Z,57.91
2022-10-06T13:47:23.513Z,60.73
2022-10-06T13:49:36.083Z,62.63
2022-10-06T13:51:51.303Z,60.42
2022-10-06T13:54:01.314Z,61.56
2022-10-06T13:56:31.357Z,61.76
2022-10-06T13:58:39.555Z,59.10
2022-10-06T14:00:56.105Z,60.22
2022-10-06T14:03:14.435Z,61.08
2022-10-06T14:05:29.931Z,64.18
2022-10-06T14:07:38.065Z,63.54
2022-10-06T14:09:46.331Z,63.99
2022-10-06T14:11:56.030Z,63.67
2022-10-06T14:14:06.445Z,64.01
2022-10-06T14:16:23.665Z,64.34
2022-10-06T14:18:41.595Z,65.87
2022-10-06T14:20:53.466Z,67.53
2022-10-06T14:23:01.643Z,69.36
2022-10-06T14:25:15.327Z,69.46
2022-10-06T14:27:23.416Z,69.71
2022-10-06T14:29:31.981Z,70.37
2022-10-06T14:31:40.886Z,70.32
2022-10-06T14:33:54.686Z,71.71
2022-10-06T14:36:04.733Z,72.08
2022-10-06T14:38:14.127Z,71.33
2022-10-06T14:40:22.257Z,72.10
2022-10-06T14:42:33.026Z,72.77
2022-10-06T14:44:43.286Z,71.49
2022-10-06T14:46:52.867Z,71.93
2022-10-06T14:49:04.534Z,72.09
2022-10-06T14:51:13.284Z,70.93
2022-10-06T14:53:21.390Z,70.19
2022-10-06T14:55:31.335Z,69.65
2022-10-06T14:57:40.071Z,70.42
2022-10-06T14:59:48.297Z,70.54
2022-10-06T15:01:56.468Z,67.68
2022-10-06T15:04:09.271Z,68.43
2022-10-06T15:06:29.871Z,69.93
2022-10-06T15:08:38.039Z,71.13
2022-10-06T15:10:54.847Z,72.99
2022-10-06T15:13:03.256Z,71.47
2022-10-06T15:15:13.139Z,71.69
2022-10-06T15:17:24.591Z,71.03
2022-10-06T15:19:36.896Z,71.25
2022-10-06T15:21:47.243Z,71.75
2022-10-06T15:23:59.440Z,71.48
2022-10-06T15:26:20.482Z,71.32
2022-10-06T15:28:42.169Z,72.19
2022-10-06T15:30:50.227Z,72.48
2022-10-06T15:33:01.961Z,72.61
2022-10-06T15:35:13.351Z,72.47
2022-10-06T15:37:22.081Z,72.31
2022-10-06T15:39:34.568Z,72.83
2022-10-06T15:41:49.906Z,73.35
2022-10-06T15:43:58.661Z,73.83
2022-10-06T15:46:06.848Z,74.74
2022-10-06T15:48:15.093Z,75.38
2022-10-06T15:50:26.185Z,75.56
2022-10-06T15:52:36.686Z,74.66
2022-10-06T15:54:48.942Z,75.29
2022-10-06T15:56:58.966Z,75.79
2022-10-06T15:59:08.006Z,76.21
2022-10-06T16:01:43.933Z,76.25
2022-10-06T16:03:53.520Z,76.53
2022-10-06T16:06:29.151Z,76.45
2022-10-06T16:08:37.580Z,77.04
2022-10-06T16:10:51.738Z,76.97
2022-10-06T16:13:00.485Z,77.25
2022-10-06T16:15:10.735Z,76.62
2022-10-06T16:17:19.838Z,77.47
2022-10-06T16:19:30.013Z,77.71
2022-10-06T16:21:41.863Z,77.74
2022-10-06T16:23:50.529Z,78.10
2022-10-06T16:25:59.150Z,78.57
2022-10-06T16:28:07.587Z,79.54
2022-10-06T16:30:16.747Z,79.59
2022-10-06T16:32:31.848Z,80.28
2022-10-06T16:34:40.837Z,80.50
2022-10-06T16:36:52.121Z,81.05
2022-10-06T16:39:01.113Z,81.36
2022-10-06T16:41:10.337Z,81.94
2022-10-06T16:43:19.015Z,82.31
2022-10-06T16:45:27.409Z,82.77
2022-10-06T16:47:35.874Z,82.87
2022-10-06T16:49:44.259Z,83.30
2022-10-06T16:51:55.198Z,83.66
2022-10-06T16:54:05.025Z,83.30
2022-10-06T16:56:17.235Z,83.54
2022-10-06T16:58:25.815Z,84.00
2022-10-06T17:00:34.489Z,83.38
2022-10-06T17:02:44.203Z,83.95
2022-10-06T17:04:52.889Z,83.46
2022-10-06T17:07:04.471Z,83.03
2022-10-06T17:09:16.474Z,82.60
2022-10-06T17:11:26.950Z,82.93
2022-10-06T17:13:35.471Z,83.20
2022-10-06T17:15:43.513Z,83.09
2022-10-06T17:17:51.278Z,83.37
2022-10-06T17:19:59.185Z,83.45
2022-10-06T17:22:09.906Z,83.89
2022-10-06T17:24:18.270Z,84.28
2022-10-06T17:26:28.121Z,84.25
2022-10-06T17:28:38.366Z,85.30
2022-10-06T17:30:59.237Z,85.03
2022-10-06T17:33:07.315Z,84.98
2022-10-06T17:35:15.224Z,84.59
2022-10-06T17:37:26.687Z,85.42
2022-10-06T17:39:34.818Z,85.12
2022-10-06T17:41:45.721Z,85.63
2022-10-06T17:43:54.396Z,86.16
2022-10-06T17:46:02.299Z,86.23
2022-10-06T17:48:12.563Z,86.47
2022-10-06T17:50:22.001Z,86.48
2022-10-06T17:52:33.005Z,86.67
2022-10-06T17:54:41.923Z,87.00
2022-10-06T17:56:51.919Z,87.00
2022-10-06T17:59:04.001Z,87.09
2022-10-06T18:01:17.909Z,87.66
2022-10-06T18:03:26.715Z,87.30
2022-10-06T18:05:35.020Z,86.72
2022-10-06T18:07:45.978Z,86.76
2022-10-06T18:10:06.252Z,86.79
2022-10-06T18:12:15.916Z,85.31
2022-10-06T18:14:25.940Z,85.38
2022-10-06T18:16:36.633Z,85.39
2022-10-06T18:18:52.658Z,86.28
2022-10-06T18:21:05.170Z,86.12
2022-10-06T18:23:15.937Z,84.53
2022-10-06T18:25:26.923Z,82.43
2022-10-06T18:27:35.549Z,82.68
2022-10-06T18:29:44.243Z,83.67
2022-10-06T18:31:54.640Z,83.84
2022-10-06T18:36:32.604Z,83.45
2022-10-06T18:38:45.875Z,83.38
2022-10-06T18:40:57.949Z,82.63
2022-10-06T18:43:06.410Z,83.49
2022-10-06T18:45:27.630Z,83.72
2022-10-06T18:47:48.195Z,84.11
2022-10-06T18:49:58.760Z,82.88
2022-10-06T18:52:07.599Z,82.14
2022-10-06T18:54:22.313Z,81.09
2022-10-06T18:56:32.842Z,81.76
2022-10-06T18:58:43.073Z,82.18
2022-10-06T19:00:51.376Z,83.33
2022-10-06T19:02:59.870Z,84.52
2022-10-06T19:05:08.941Z,86.91
2022-10-06T19:07:17.319Z,86.75
2022-10-06T19:09:28.787Z,88.57
2022-10-06T19:11:46.008Z,89.83
2022-10-06T19:13:57.791Z,89.39
2022-10-06T19:16:06.622Z,89.28
2022-10-06T19:18:15.022Z,89.39
2022-10-06T19:20:23.617Z,89.96
2022-10-06T19:22:31.758Z,91.04
2022-10-06T19:24:44.300Z,91.08
2022-10-06T19:26:55.325Z,90.74
2022-10-06T19:29:08.315Z,91.21
2022-10-06T19:31:20.154Z,91.20
2022-10-06T19:33:28.690Z,91.30
2022-10-06T19:35:36.999Z,91.69
2022-10-06T19:37:46.424Z,91.87
2022-10-06T19:39:59.943Z,91.38
2022-10-06T19:42:22.020Z,91.14
2022-10-06T19:44:31.059Z,91.34
2022-10-06T19:46:42.859Z,91.75
2022-10-06T19:48:56.774Z,91.83
2022-10-06T19:51:14.772Z,92.66
2022-10-06T19:53:23.031Z,92.62
2022-10-06T19:55:34.391Z,93.31
2022-10-06T19:57:43.358Z,93.50
2022-10-06T19:59:54.669Z,93.53
2022-10-06T20:02:03.942Z,93.26
2022-10-06T20:04:13.161Z,93.69
2022-10-06T20:06:21.986Z,93.99
2022-10-06T20:08:32.271Z,94.06
2022-10-06T20:10:43.167Z,94.54
2022-10-06T20:12:51.275Z,94.70
2022-10-06T20:15:01.522Z,95.59
2022-10-06T20:17:10.316Z,96.98
2022-10-06T20:19:18.614Z,97.39
2022-10-06T20:21:30.390Z,98.23
2022-10-06T20:23:39.203Z,97.12
2022-10-06T20:25:50.041Z,97.67
2022-10-06T20:27:59.270Z,97.89
2022-10-06T20:30:08.434Z,98.54
2022-10-06T20:32:17.026Z,98.36
2022-10-06T20:34:27.214Z,99.61
2022-10-06T20:36:37.953Z,99.57
2022-10-06T20:38:59.141Z,100.00
2022-10-06T20:41:11.254Z,100.00
2022-10-06T20:43:23.646Z,100.00
2022-10-06T20:45:31.965Z,100.00
2022-10-06T20:47:40.316Z,100.00
2022-10-06T20:49:54.538Z,100.00
2022-10-06T20:52:03.483Z,100.00
2022-10-06T20:54:12.263Z,100.00
2022-10-06T20:56:23.682Z,100.00
2022-10-06T20:58:32.649Z,100.00
2022-10-06T21:00:41.597Z,100.00
2022-10-06T21:02:50.192Z,100.00
2022-10-06T21:04:58.726Z,100.00
2022-10-06T21:07:07.643Z,100.00
2022-10-06T21:09:20.054Z,100.00
2022-10-06T21:11:32.016Z,100.00
2022-10-06T21:13:48.511Z,100.00
2022-10-06T21:16:00.047Z,100.00
2022-10-06T21:18:08.683Z,100.00
2022-10-06T21:20:17.237Z,100.00
2022-10-06T21:22:25.567Z,100.00
2022-10-06T21:24:34.211Z,100.00
2022-10-06T21:26:45.559Z,100.00
2022-10-06T21:28:54.549Z,100.00
2022-10-06T21:31:05.932Z,100.00
2022-10-06T21:33:14.645Z,100.00
2022-10-06T21:35:22.970Z,100.00
2022-10-06T21:37:31.307Z,100.00
2022-10-06T21:39:39.467Z,100.00
2022-10-06T21:41:50.615Z,100.00
2022-10-06T21:44:02.431Z,100.00
2022-10-06T21:46:27.584Z,100.00
2022-10-06T21:48:37.736Z,100.00
2022-10-06T21:50:46.264Z,100.00
2022-10-06T21:52:54.633Z,100.00
2022-10-06T21:55:03.041Z,100.00
2022-10-06T21:57:15.619Z,100.00
2022-10-06T21:59:24.470Z,100.00
2022-10-06T22:01:34.387Z,100.00
2022-10-06T22:03:42.910Z,100.00
2022-10-06T22:05:51.004Z,100.00
2022-10-06T22:07:59.345Z,100.00
2022-10-06T22:10:08.690Z,100.00
2022-10-06T22:12:19.546Z,100.00
2022-10-06T22:14:28.038Z,100.00
2022-10-06T22:16:37.996Z,100.00
2022-10-06T22:18:46.892Z,100.00
2022-10-06T22:20:55.438Z,100.00
2022-10-06T22:23:05.066Z,100.00
2022-10-06T22:25:13.685Z,100.00
2022-10-06T22:27:25.327Z,100.00
2022-10-06T22:29:36.463Z,100.00
2022-10-06T22:31:47.365Z,100.00
2022-10-06T22:33:57.784Z,100.00
2022-10-06T22:36:06.281Z,100.00
2022-10-06T22:38:14.712Z,100.00
2022-10-06T22:40:23.035Z,100.00
2022-10-06T22:42:33.892Z,100.00
2022-10-06T22:44:42.278Z,100.00
2022-10-06T22:46:50.808Z,100.00
2022-10-06T22:48:59.215Z,100.00
2022-10-06T22:51:08.310Z,100.00
2022-10-06T22:53:17.894Z,100.00
2022-10-06T22:55:26.735Z,100.00
2022-10-06T22:57:37.769Z,100.00
2022-10-06T22:59:45.954Z,100.00
2022-10-06T23:01:56.326Z,100.00
2022-10-06T23:04:04.810Z,100.00
2022-10-06T23:06:15.877Z,100.00
2022-10-06T23:08:24.032Z,100.00
2022-10-06T23:10:32.799Z,100.00
2022-10-06T23:12:43.666Z,100.00
2022-10-06T23:14:51.873Z,100.00
2022-10-06T23:17:00.106Z,100.00
2022-10-06T23:19:08.733Z,100.00
2022-10-06T23:21:21.979Z,100.00
2022-10-06T23:23:30.574Z,100.00
2022-10-06T23:25:40.657Z,100.00
2022-10-06T23:27:51.361Z,100.00
2022-10-06T23:29:59.864Z,100.00
2022-10-06T23:32:08.320Z,100.00
2022-10-06T23:34:17.192Z,100.00
2022-10-06T23:36:25.998Z,100.00
2022-10-06T23:38:34.271Z,100.00
2022-10-06T23:40:42.534Z,100.00
2022-10-06T23:42:53.798Z,100.00
2022-10-06T23:45:01.987Z,100.00
2022-10-06T23:47:10.877Z,100.00
2022-10-06T23:49:19.043Z,100.00
2022-10-06T23:51:27.441Z,100.00
2022-10-06T23:53:36.417Z,100.00
2022-10-06T23:55:44.931Z,100.00
2022-10-06T23:57:55.646Z,100.00
